sensor_id;sensor_type;location;lat;lon;timestamp;temperature;humidity
5419;DHT22;2732;52.092;11.556;2023-05-20T00:00:27;12.80;77.30
5419;DHT22;2732;52.092;11.556;2023-05-20T00:05:28;12.70;77.60
5419;DHT22;2732;52.092;11.556;2023-05-20T00:10:28;12.70;78.70
5419;DHT22;2732;52.092;11.556;2023-05-20T00:15:29;12.80;78.80
5419;DHT22;2732;52.092;11.556;2023-05-20T00:20:32;12.80;79.30
5419;DHT22;2732;52.092;11.556;2023-05-20T00:25:33;12.80;79.70
5419;DHT22;2732;52.092;11.556;2023-05-20T00:30:34;12.90;80.60
5419;DHT22;2732;52.092;11.556;2023-05-20T00:35:35;12.90;81.30
5419;DHT22;2732;52.092;11.556;2023-05-20T00:40:35;12.90;80.70
5419;DHT22;2732;52.092;11.556;2023-05-20T00:45:36;12.90;81.20
5419;DHT22;2732;52.092;11.556;2023-05-20T00:50:38;12.90;81.10
5419;DHT22;2732;52.092;11.556;2023-05-20T00:55:39;12.90;81.30
5419;DHT22;2732;52.092;11.556;2023-05-20T01:00:40;13.00;82.00
5419;DHT22;2732;52.092;11.556;2023-05-20T01:05:40;13.00;81.50
5419;DHT22;2732;52.092;11.556;2023-05-20T01:10:43;13.00;81.30
5419;DHT22;2732;52.092;11.556;2023-05-20T01:15:47;13.00;81.40
5419;DHT22;2732;52.092;11.556;2023-05-20T01:20:50;13.00;82.50
5419;DHT22;2732;52.092;11.556;2023-05-20T01:25:55;13.00;82.40
5419;DHT22;2732;52.092;11.556;2023-05-20T01:30:56;12.90;82.80
5419;DHT22;2732;52.092;11.556;2023-05-20T01:35:58;12.90;83.00
5419;DHT22;2732;52.092;11.556;2023-05-20T01:41:01;12.90;83.70
5419;DHT22;2732;52.092;11.556;2023-05-20T01:46:07;12.90;84.00
5419;DHT22;2732;52.092;11.556;2023-05-20T01:51:07;12.90;84.40
5419;DHT22;2732;52.092;11.556;2023-05-20T01:56:08;12.90;84.50
5419;DHT22;2732;52.092;11.556;2023-05-20T02:01:08;12.90;84.80
5419;DHT22;2732;52.092;11.556;2023-05-20T02:06:09;12.90;85.20
5419;DHT22;2732;52.092;11.556;2023-05-20T02:11:09;12.90;85.10
5419;DHT22;2732;52.092;11.556;2023-05-20T02:16:10;12.90;85.40
5419;DHT22;2732;52.092;11.556;2023-05-20T02:21:11;12.90;86.20
5419;DHT22;2732;52.092;11.556;2023-05-20T02:26:13;12.80;86.60
5419;DHT22;2732;52.092;11.556;2023-05-20T02:31:14;12.80;86.90
5419;DHT22;2732;52.092;11.556;2023-05-20T02:36:16;12.80;86.80
5419;DHT22;2732;52.092;11.556;2023-05-20T02:41:16;12.80;87.60
5419;DHT22;2732;52.092;11.556;2023-05-20T02:46:17;12.80;88.00
5419;DHT22;2732;52.092;11.556;2023-05-20T02:51:18;12.80;88.00
5419;DHT22;2732;52.092;11.556;2023-05-20T02:56:19;12.70;88.60
5419;DHT22;2732;52.092;11.556;2023-05-20T03:01:20;12.70;88.70
5419;DHT22;2732;52.092;11.556;2023-05-20T03:06:21;12.70;89.20
5419;DHT22;2732;52.092;11.556;2023-05-20T03:11:21;12.70;89.10
5419;DHT22;2732;52.092;11.556;2023-05-20T03:16:22;12.70;89.40
5419;DHT22;2732;52.092;11.556;2023-05-20T03:21:24;12.70;88.80
5419;DHT22;2732;52.092;11.556;2023-05-20T03:26:26;12.70;90.50
5419;DHT22;2732;52.092;11.556;2023-05-20T03:31:27;12.70;90.10
5419;DHT22;2732;52.092;11.556;2023-05-20T03:36:27;12.70;90.40
5419;DHT22;2732;52.092;11.556;2023-05-20T03:41:28;12.70;90.80
5419;DHT22;2732;52.092;11.556;2023-05-20T03:46:28;12.70;91.10
5419;DHT22;2732;52.092;11.556;2023-05-20T03:51:33;12.70;91.20
5419;DHT22;2732;52.092;11.556;2023-05-20T03:56:34;12.70;91.20
5419;DHT22;2732;52.092;11.556;2023-05-20T04:01:35;12.70;91.40
5419;DHT22;2732;52.092;11.556;2023-05-20T04:06:36;12.70;91.40
5419;DHT22;2732;52.092;11.556;2023-05-20T04:11:37;12.70;91.30
5419;DHT22;2732;52.092;11.556;2023-05-20T04:16:37;12.70;91.70
5419;DHT22;2732;52.092;11.556;2023-05-20T04:21:38;12.70;91.90
5419;DHT22;2732;52.092;11.556;2023-05-20T04:26:39;12.80;92.20
5419;DHT22;2732;52.092;11.556;2023-05-20T04:31:39;12.80;92.00
5419;DHT22;2732;52.092;11.556;2023-05-20T04:36:40;12.80;92.50
5419;DHT22;2732;52.092;11.556;2023-05-20T04:41:40;12.80;92.80
5419;DHT22;2732;52.092;11.556;2023-05-20T04:46:41;12.80;92.90
5419;DHT22;2732;52.092;11.556;2023-05-20T04:51:42;12.90;93.10
5419;DHT22;2732;52.092;11.556;2023-05-20T04:56:43;12.90;93.10
5419;DHT22;2732;52.092;11.556;2023-05-20T05:01:43;13.00;93.10
5419;DHT22;2732;52.092;11.556;2023-05-20T05:06:47;13.00;93.20
5419;DHT22;2732;52.092;11.556;2023-05-20T05:11:48;13.00;93.00
5419;DHT22;2732;52.092;11.556;2023-05-20T05:16:49;13.00;93.20
5419;DHT22;2732;52.092;11.556;2023-05-20T05:21:49;13.00;93.60
5419;DHT22;2732;52.092;11.556;2023-05-20T05:26:54;13.00;93.40
5419;DHT22;2732;52.092;11.556;2023-05-20T05:31:56;13.10;93.70
5419;DHT22;2732;52.092;11.556;2023-05-20T05:36:56;13.10;94.00
5419;DHT22;2732;52.092;11.556;2023-05-20T05:41:57;13.10;94.00
5419;DHT22;2732;52.092;11.556;2023-05-20T05:46:57;13.10;94.10
5419;DHT22;2732;52.092;11.556;2023-05-20T05:51:58;13.20;94.10
5419;DHT22;2732;52.092;11.556;2023-05-20T05:56:59;13.30;94.00
5419;DHT22;2732;52.092;11.556;2023-05-20T06:01:59;13.40;93.80
5419;DHT22;2732;52.092;11.556;2023-05-20T06:07:00;13.60;93.90
5419;DHT22;2732;52.092;11.556;2023-05-20T06:12:01;13.80;93.70
5419;DHT22;2732;52.092;11.556;2023-05-20T06:17:03;14.00;93.70
5419;DHT22;2732;52.092;11.556;2023-05-20T06:22:05;14.10;93.70
5419;DHT22;2732;52.092;11.556;2023-05-20T06:27:05;14.20;93.70
5419;DHT22;2732;52.092;11.556;2023-05-20T06:32:06;14.40;94.10
5419;DHT22;2732;52.092;11.556;2023-05-20T06:37:07;14.50;93.80
5419;DHT22;2732;52.092;11.556;2023-05-20T06:42:08;14.60;93.60
5419;DHT22;2732;52.092;11.556;2023-05-20T06:47:09;14.80;93.70
5419;DHT22;2732;52.092;11.556;2023-05-20T06:52:09;15.00;93.60
5419;DHT22;2732;52.092;11.556;2023-05-20T06:57:10;15.20;93.30
5419;DHT22;2732;52.092;11.556;2023-05-20T07:02:11;15.50;93.20
5419;DHT22;2732;52.092;11.556;2023-05-20T07:07:12;15.80;93.00
5419;DHT22;2732;52.092;11.556;2023-05-20T07:12:14;16.10;92.60
5419;DHT22;2732;52.092;11.556;2023-05-20T07:17:15;16.20;92.60
5419;DHT22;2732;52.092;11.556;2023-05-20T07:22:16;16.40;92.30
5419;DHT22;2732;52.092;11.556;2023-05-20T07:27:17;16.60;92.40
5419;DHT22;2732;52.092;11.556;2023-05-20T07:32:17;16.70;92.10
5419;DHT22;2732;52.092;11.556;2023-05-20T07:37:18;16.90;92.00
5419;DHT22;2732;52.092;11.556;2023-05-20T07:42:18;17.10;91.80
5419;DHT22;2732;52.092;11.556;2023-05-20T07:47:19;17.20;91.80
5419;DHT22;2732;52.092;11.556;2023-05-20T07:52:20;17.30;91.60
5419;DHT22;2732;52.092;11.556;2023-05-20T07:57:20;17.30;91.60
5419;DHT22;2732;52.092;11.556;2023-05-20T08:02:21;17.30;91.50
5419;DHT22;2732;52.092;11.556;2023-05-20T08:07:21;17.50;91.60
5419;DHT22;2732;52.092;11.556;2023-05-20T08:12:22;17.50;91.40
5419;DHT22;2732;52.092;11.556;2023-05-20T08:17:22;17.60;91.40
5419;DHT22;2732;52.092;11.556;2023-05-20T08:22:23;17.60;91.20
5419;DHT22;2732;52.092;11.556;2023-05-20T08:27:24;17.70;91.10
5419;DHT22;2732;52.092;11.556;2023-05-20T08:32:25;17.80;91.00
5419;DHT22;2732;52.092;11.556;2023-05-20T08:37:26;17.80;91.00
5419;DHT22;2732;52.092;11.556;2023-05-20T08:42:27;17.90;90.90
5419;DHT22;2732;52.092;11.556;2023-05-20T08:47:28;18.00;90.90
5419;DHT22;2732;52.092;11.556;2023-05-20T08:52:30;18.00;90.80
5419;DHT22;2732;52.092;11.556;2023-05-20T08:57:35;18.00;90.80
5419;DHT22;2732;52.092;11.556;2023-05-20T09:02:37;18.10;90.80
5419;DHT22;2732;52.092;11.556;2023-05-20T09:07:38;18.30;90.50
5419;DHT22;2732;52.092;11.556;2023-05-20T09:12:39;18.50;90.50
5419;DHT22;2732;52.092;11.556;2023-05-20T09:18:05;18.60;90.40
5419;DHT22;2732;52.092;11.556;2023-05-20T09:23:08;18.60;90.30
5419;DHT22;2732;52.092;11.556;2023-05-20T09:28:09;18.50;90.30
5419;DHT22;2732;52.092;11.556;2023-05-20T09:33:11;18.50;90.40
5419;DHT22;2732;52.092;11.556;2023-05-20T09:38:14;18.60;90.30
5419;DHT22;2732;52.092;11.556;2023-05-20T09:43:16;18.60;90.30
5419;DHT22;2732;52.092;11.556;2023-05-20T09:48:17;18.60;90.30
5419;DHT22;2732;52.092;11.556;2023-05-20T09:53:18;18.60;90.40
5419;DHT22;2732;52.092;11.556;2023-05-20T09:58:19;18.60;90.40
5419;DHT22;2732;52.092;11.556;2023-05-20T10:03:23;18.60;90.30
5419;DHT22;2732;52.092;11.556;2023-05-20T10:08:55;18.70;90.00
5419;DHT22;2732;52.092;11.556;2023-05-20T10:14:15;18.80;90.10
5419;DHT22;2732;52.092;11.556;2023-05-20T10:19:31;18.80;90.00
5419;DHT22;2732;52.092;11.556;2023-05-20T10:24:36;19.00;90.00
5419;DHT22;2732;52.092;11.556;2023-05-20T10:29:54;19.20;89.80
5419;DHT22;2732;52.092;11.556;2023-05-20T10:35:06;19.30;89.70
5419;DHT22;2732;52.092;11.556;2023-05-20T10:40:09;19.30;89.30
5419;DHT22;2732;52.092;11.556;2023-05-20T10:45:23;19.30;89.10
5419;DHT22;2732;52.092;11.556;2023-05-20T10:50:33;19.70;88.60
5419;DHT22;2732;52.092;11.556;2023-05-20T10:55:37;19.80;88.20
5419;DHT22;2732;52.092;11.556;2023-05-20T11:00:38;20.00;88.20
5419;DHT22;2732;52.092;11.556;2023-05-20T11:05:40;20.20;87.80
5419;DHT22;2732;52.092;11.556;2023-05-20T11:10:41;20.50;87.70
5419;DHT22;2732;52.092;11.556;2023-05-20T11:15:44;20.50;87.50
5419;DHT22;2732;52.092;11.556;2023-05-20T11:20:45;20.50;87.20
5419;DHT22;2732;52.092;11.556;2023-05-20T11:25:46;20.40;86.90
5419;DHT22;2732;52.092;11.556;2023-05-20T11:30:49;20.50;87.00
5419;DHT22;2732;52.092;11.556;2023-05-20T11:35:52;21.00;86.20
5419;DHT22;2732;52.092;11.556;2023-05-20T11:40:55;21.20;86.00
5419;DHT22;2732;52.092;11.556;2023-05-20T11:45:57;21.50;85.80
5419;DHT22;2732;52.092;11.556;2023-05-20T11:51:01;21.50;85.10
5419;DHT22;2732;52.092;11.556;2023-05-20T11:56:02;21.30;85.00
5419;DHT22;2732;52.092;11.556;2023-05-20T12:01:03;21.20;85.20
5419;DHT22;2732;52.092;11.556;2023-05-20T12:06:03;21.20;85.30
5419;DHT22;2732;52.092;11.556;2023-05-20T12:11:04;21.50;85.00
5419;DHT22;2732;52.092;11.556;2023-05-20T12:16:05;21.60;84.80
5419;DHT22;2732;52.092;11.556;2023-05-20T12:21:06;22.40;83.90
5419;DHT22;2732;52.092;11.556;2023-05-20T12:26:06;23.40;82.10
5419;DHT22;2732;52.092;11.556;2023-05-20T12:31:07;23.30;81.50
5419;DHT22;2732;52.092;11.556;2023-05-20T12:36:08;23.30;81.00
5419;DHT22;2732;52.092;11.556;2023-05-20T12:41:08;24.00;80.10
5419;DHT22;2732;52.092;11.556;2023-05-20T12:46:09;24.20;79.60
5419;DHT22;2732;52.092;11.556;2023-05-20T12:51:10;24.10;78.80
5419;DHT22;2732;52.092;11.556;2023-05-20T12:56:10;24.90;78.20
5419;DHT22;2732;52.092;11.556;2023-05-20T13:01:11;25.40;77.10
5419;DHT22;2732;52.092;11.556;2023-05-20T13:06:11;25.50;76.00
5419;DHT22;2732;52.092;11.556;2023-05-20T13:11:12;25.60;75.10
5419;DHT22;2732;52.092;11.556;2023-05-20T13:16:14;26.00;74.60
5419;DHT22;2732;52.092;11.556;2023-05-20T13:21:17;26.20;74.40
5419;DHT22;2732;52.092;11.556;2023-05-20T13:26:18;26.10;73.60
5419;DHT22;2732;52.092;11.556;2023-05-20T13:31:19;26.30;73.20
5419;DHT22;2732;52.092;11.556;2023-05-20T13:36:20;26.30;72.70
5419;DHT22;2732;52.092;11.556;2023-05-20T13:41:20;26.70;72.30
5419;DHT22;2732;52.092;11.556;2023-05-20T13:46:21;26.60;72.40
5419;DHT22;2732;52.092;11.556;2023-05-20T13:51:22;26.90;72.00
5419;DHT22;2732;52.092;11.556;2023-05-20T13:56:22;27.20;71.10
5419;DHT22;2732;52.092;11.556;2023-05-20T14:01:23;27.20;70.60
5419;DHT22;2732;52.092;11.556;2023-05-20T14:06:25;27.40;70.00
5419;DHT22;2732;52.092;11.556;2023-05-20T14:11:26;27.40;69.80
5419;DHT22;2732;52.092;11.556;2023-05-20T14:16:27;27.60;69.50
5419;DHT22;2732;52.092;11.556;2023-05-20T14:21:27;27.50;68.90
5419;DHT22;2732;52.092;11.556;2023-05-20T14:26:28;27.60;69.10
5419;DHT22;2732;52.092;11.556;2023-05-20T14:31:28;27.80;69.20
5419;DHT22;2732;52.092;11.556;2023-05-20T14:36:29;27.90;68.60
5419;DHT22;2732;52.092;11.556;2023-05-20T14:41:31;27.50;69.10
5419;DHT22;2732;52.092;11.556;2023-05-20T14:46:32;27.40;69.10
5419;DHT22;2732;52.092;11.556;2023-05-20T14:51:32;27.40;68.80
5419;DHT22;2732;52.092;11.556;2023-05-20T14:56:35;27.30;68.70
5419;DHT22;2732;52.092;11.556;2023-05-20T15:01:37;26.80;69.60
5419;DHT22;2732;52.092;11.556;2023-05-20T15:06:37;26.50;70.00
5419;DHT22;2732;52.092;11.556;2023-05-20T15:11:38;26.70;70.60
5419;DHT22;2732;52.092;11.556;2023-05-20T15:16:39;26.90;70.20
5419;DHT22;2732;52.092;11.556;2023-05-20T15:21:39;27.20;70.20
5419;DHT22;2732;52.092;11.556;2023-05-20T15:26:40;27.20;70.00
5419;DHT22;2732;52.092;11.556;2023-05-20T15:31:41;27.30;69.40
5419;DHT22;2732;52.092;11.556;2023-05-20T15:36:41;27.20;69.00
5419;DHT22;2732;52.092;11.556;2023-05-20T15:41:42;27.20;69.10
5419;DHT22;2732;52.092;11.556;2023-05-20T15:46:43;27.30;69.80
5419;DHT22;2732;52.092;11.556;2023-05-20T15:51:44;27.20;69.30
5419;DHT22;2732;52.092;11.556;2023-05-20T15:56:44;27.20;69.60
5419;DHT22;2732;52.092;11.556;2023-05-20T16:01:45;27.20;68.60
5419;DHT22;2732;52.092;11.556;2023-05-20T16:06:46;27.10;69.30
5419;DHT22;2732;52.092;11.556;2023-05-20T16:11:46;27.00;69.30
5419;DHT22;2732;52.092;11.556;2023-05-20T16:16:47;27.00;69.40
5419;DHT22;2732;52.092;11.556;2023-05-20T16:21:47;26.90;69.30
5419;DHT22;2732;52.092;11.556;2023-05-20T16:26:48;26.90;69.70
5419;DHT22;2732;52.092;11.556;2023-05-20T16:31:48;26.80;69.40
5419;DHT22;2732;52.092;11.556;2023-05-20T16:36:49;26.70;69.00
5419;DHT22;2732;52.092;11.556;2023-05-20T16:41:50;26.60;69.50
5419;DHT22;2732;52.092;11.556;2023-05-20T16:46:50;26.50;69.40
5419;DHT22;2732;52.092;11.556;2023-05-20T16:51:51;26.40;69.70
5419;DHT22;2732;52.092;11.556;2023-05-20T16:56:51;26.30;69.40
5419;DHT22;2732;52.092;11.556;2023-05-20T17:01:52;26.10;69.50
5419;DHT22;2732;52.092;11.556;2023-05-20T17:06:53;26.00;69.90
5419;DHT22;2732;52.092;11.556;2023-05-20T17:11:55;25.90;70.00
5419;DHT22;2732;52.092;11.556;2023-05-20T17:16:56;25.70;70.20
5419;DHT22;2732;52.092;11.556;2023-05-20T17:21:57;25.60;70.40
5419;DHT22;2732;52.092;11.556;2023-05-20T17:26:57;25.40;70.40
5419;DHT22;2732;52.092;11.556;2023-05-20T17:31:58;25.30;70.70
5419;DHT22;2732;52.092;11.556;2023-05-20T17:36:59;25.10;70.80
5419;DHT22;2732;52.092;11.556;2023-05-20T17:41:59;24.90;71.10
5419;DHT22;2732;52.092;11.556;2023-05-20T17:47:00;24.70;71.50
5419;DHT22;2732;52.092;11.556;2023-05-20T17:52:01;24.40;71.70
5419;DHT22;2732;52.092;11.556;2023-05-20T17:57:01;24.10;72.30
5419;DHT22;2732;52.092;11.556;2023-05-20T18:02:02;23.70;72.80
5419;DHT22;2732;52.092;11.556;2023-05-20T18:07:05;23.40;73.30
5419;DHT22;2732;52.092;11.556;2023-05-20T18:12:08;23.10;74.00
5419;DHT22;2732;52.092;11.556;2023-05-20T18:17:09;22.90;74.60
5419;DHT22;2732;52.092;11.556;2023-05-20T18:22:09;22.60;75.10
5419;DHT22;2732;52.092;11.556;2023-05-20T18:27:10;22.30;75.60
5419;DHT22;2732;52.092;11.556;2023-05-20T18:32:11;22.10;76.20
5419;DHT22;2732;52.092;11.556;2023-05-20T18:37:11;21.80;76.80
5419;DHT22;2732;52.092;11.556;2023-05-20T18:42:12;21.60;77.10
5419;DHT22;2732;52.092;11.556;2023-05-20T18:47:12;21.30;77.60
5419;DHT22;2732;52.092;11.556;2023-05-20T18:52:13;21.10;78.10
5419;DHT22;2732;52.092;11.556;2023-05-20T18:57:16;20.90;78.60
5419;DHT22;2732;52.092;11.556;2023-05-20T19:02:16;20.70;79.10
5419;DHT22;2732;52.092;11.556;2023-05-20T19:07:17;20.50;79.60
5419;DHT22;2732;52.092;11.556;2023-05-20T19:12:18;20.30;79.90
5419;DHT22;2732;52.092;11.556;2023-05-20T19:17:19;20.10;80.40
5419;DHT22;2732;52.092;11.556;2023-05-20T19:22:19;20.00;80.50
5419;DHT22;2732;52.092;11.556;2023-05-20T19:27:20;19.80;81.00
5419;DHT22;2732;52.092;11.556;2023-05-20T19:32:21;19.60;81.60
5419;DHT22;2732;52.092;11.556;2023-05-20T19:37:22;19.40;81.60
5419;DHT22;2732;52.092;11.556;2023-05-20T19:42:23;19.30;82.50
5419;DHT22;2732;52.092;11.556;2023-05-20T19:47:24;19.10;82.70
5419;DHT22;2732;52.092;11.556;2023-05-20T19:52:24;19.00;83.40
5419;DHT22;2732;52.092;11.556;2023-05-20T19:57:25;18.80;83.80
5419;DHT22;2732;52.092;11.556;2023-05-20T20:02:26;18.70;84.50
5419;DHT22;2732;52.092;11.556;2023-05-20T20:07:26;18.60;84.70
5419;DHT22;2732;52.092;11.556;2023-05-20T20:12:27;18.40;85.10
5419;DHT22;2732;52.092;11.556;2023-05-20T20:17:28;18.30;85.70
5419;DHT22;2732;52.092;11.556;2023-05-20T20:22:29;18.20;86.40
5419;DHT22;2732;52.092;11.556;2023-05-20T20:27:30;18.10;86.70
5419;DHT22;2732;52.092;11.556;2023-05-20T20:32:32;18.00;87.20
5419;DHT22;2732;52.092;11.556;2023-05-20T20:37:32;17.80;87.60
5419;DHT22;2732;52.092;11.556;2023-05-20T20:42:35;17.70;88.40
5419;DHT22;2732;52.092;11.556;2023-05-20T20:47:38;17.60;88.70
5419;DHT22;2732;52.092;11.556;2023-05-20T20:52:40;17.50;89.40
5419;DHT22;2732;52.092;11.556;2023-05-20T20:57:41;17.50;90.20
5419;DHT22;2732;52.092;11.556;2023-05-20T21:02:44;17.40;90.30
5419;DHT22;2732;52.092;11.556;2023-05-20T21:07:44;17.30;90.50
5419;DHT22;2732;52.092;11.556;2023-05-20T21:12:49;17.20;91.00
5419;DHT22;2732;52.092;11.556;2023-05-20T21:17:50;17.10;91.20
5419;DHT22;2732;52.092;11.556;2023-05-20T21:22:51;17.00;91.40
5419;DHT22;2732;52.092;11.556;2023-05-20T21:27:51;16.90;91.60
5419;DHT22;2732;52.092;11.556;2023-05-20T21:32:52;16.80;91.70
5419;DHT22;2732;52.092;11.556;2023-05-20T21:37:52;16.70;92.00
5419;DHT22;2732;52.092;11.556;2023-05-20T21:42:53;16.60;92.30
5419;DHT22;2732;52.092;11.556;2023-05-20T21:47:53;16.50;92.50
5419;DHT22;2732;52.092;11.556;2023-05-20T21:52:56;16.40;92.80
5419;DHT22;2732;52.092;11.556;2023-05-20T21:57:57;16.20;93.00
5419;DHT22;2732;52.092;11.556;2023-05-20T22:02:58;16.10;93.40
5419;DHT22;2732;52.092;11.556;2023-05-20T22:07:58;16.00;93.60
5419;DHT22;2732;52.092;11.556;2023-05-20T22:12:59;15.90;93.90
5419;DHT22;2732;52.092;11.556;2023-05-20T22:18:01;15.80;94.20
5419;DHT22;2732;52.092;11.556;2023-05-20T22:23:02;15.70;94.50
5419;DHT22;2732;52.092;11.556;2023-05-20T22:28:03;15.60;94.90
5419;DHT22;2732;52.092;11.556;2023-05-20T22:33:04;15.50;95.20
5419;DHT22;2732;52.092;11.556;2023-05-20T22:38:05;15.40;95.50
5419;DHT22;2732;52.092;11.556;2023-05-20T22:43:05;15.40;95.80
5419;DHT22;2732;52.092;11.556;2023-05-20T22:48:06;15.30;96.00
5419;DHT22;2732;52.092;11.556;2023-05-20T22:53:06;15.20;96.30
5419;DHT22;2732;52.092;11.556;2023-05-20T22:58:07;15.10;96.60
5419;DHT22;2732;52.092;11.556;2023-05-20T23:03:08;15.00;97.00
5419;DHT22;2732;52.092;11.556;2023-05-20T23:08:08;14.90;97.30
5419;DHT22;2732;52.092;11.556;2023-05-20T23:13:09;14.80;97.50
5419;DHT22;2732;52.092;11.556;2023-05-20T23:18:10;14.80;97.90
5419;DHT22;2732;52.092;11.556;2023-05-20T23:23:11;14.70;98.00
5419;DHT22;2732;52.092;11.556;2023-05-20T23:28:11;14.60;98.30
5419;DHT22;2732;52.092;11.556;2023-05-20T23:33:12;14.50;98.60
5419;DHT22;2732;52.092;11.556;2023-05-20T23:38:14;14.50;98.80
5419;DHT22;2732;52.092;11.556;2023-05-20T23:43:16;14.40;99.10
5419;DHT22;2732;52.092;11.556;2023-05-20T23:48:17;14.30;99.40
5419;DHT22;2732;52.092;11.556;2023-05-20T23:53:19;14.20;99.60
5419;DHT22;2732;52.092;11.556;2023-05-20T23:58:20;14.20;99.90
